sensor_id;sensor_type;location;lat;lon;timestamp;pressure;altitude;pressure_sealevel;temperature;humidity
16481;BME280;44634;54.110;12.138;2023-08-24T00:00:56;101557.66;;;20.86;100.00
16481;BME280;44634;54.110;12.138;2023-08-24T00:03:24;101559.13;;;20.88;100.00
16481;BME280;44634;54.110;12.138;2023-08-24T00:05:52;101557.28;;;20.89;100.00
16481;BME280;44634;54.110;12.138;2023-08-24T00:08:20;101557.13;;;20.53;100.00
16481;BME280;44634;54.110;12.138;2023-08-24T00:10:48;101539.47;;;20.73;100.00
16481;BME280;44634;54.110;12.138;2023-08-24T00:13:15;101544.53;;;20.68;100.00
16481;BME280;44634;54.110;12.138;2023-08-24T00:15:45;101539.53;;;20.65;100.00
16481;BME280;44634;54.110;12.138;2023-08-24T00:18:13;101532.41;;;20.57;100.00
16481;BME280;44634;54.110;12.138;2023-08-24T00:20:41;101535.09;;;20.57;100.00
16481;BME280;44634;54.110;12.138;2023-08-24T00:23:08;101536.84;;;20.50;100.00
16481;BME280;44634;54.110;12.138;2023-08-24T00:25:36;101547.34;;;20.74;100.00
16481;BME280;44634;54.110;12.138;2023-08-24T00:28:04;101553.00;;;20.79;100.00
16481;BME280;44634;54.110;12.138;2023-08-24T00:30:32;101555.50;;;20.96;100.00
16481;BME280;44634;54.110;12.138;2023-08-24T00:33:01;101572.72;;;20.57;100.00
16481;BME280;44634;54.110;12.138;2023-08-24T00:35:28;101572.00;;;20.78;100.00
16481;BME280;44634;54.110;12.138;2023-08-24T00:37:57;101572.94;;;21.00;100.00
16481;BME280;44634;54.110;12.138;2023-08-24T00:40:24;101583.41;;;20.95;100.00
16481;BME280;44634;54.110;12.138;2023-08-24T00:42:52;101581.72;;;20.79;100.00
16481;BME280;44634;54.110;12.138;2023-08-24T00:45:20;101584.94;;;20.37;100.00
16481;BME280;44634;54.110;12.138;2023-08-24T00:47:48;101576.44;;;20.56;100.00
16481;BME280;44634;54.110;12.138;2023-08-24T00:50:18;101578.22;;;20.41;100.00
16481;BME280;44634;54.110;12.138;2023-08-24T00:52:45;101572.13;;;20.47;100.00
16481;BME280;44634;54.110;12.138;2023-08-24T00:55:14;101566.47;;;20.42;100.00
16481;BME280;44634;54.110;12.138;2023-08-24T00:57:41;101584.50;;;20.56;100.00
16481;BME280;44634;54.110;12.138;2023-08-24T01:00:09;101587.59;;;20.45;100.00
16481;BME280;44634;54.110;12.138;2023-08-24T01:02:37;101585.56;;;20.47;100.00
16481;BME280;44634;54.110;12.138;2023-08-24T01:05:05;101577.38;;;20.40;100.00
16481;BME280;44634;54.110;12.138;2023-08-24T01:07:35;101583.94;;;20.38;100.00
16481;BME280;44634;54.110;12.138;2023-08-24T01:10:04;101580.75;;;20.42;100.00
16481;BME280;44634;54.110;12.138;2023-08-24T01:12:35;101591.78;;;20.47;100.00
16481;BME280;44634;54.110;12.138;2023-08-24T01:15:07;101587.88;;;20.50;100.00
16481;BME280;44634;54.110;12.138;2023-08-24T01:17:37;101590.41;;;20.29;100.00
16481;BME280;44634;54.110;12.138;2023-08-24T01:20:07;101589.91;;;20.25;100.00
16481;BME280;44634;54.110;12.138;2023-08-24T01:22:41;101595.91;;;20.12;100.00
16481;BME280;44634;54.110;12.138;2023-08-24T01:25:12;101599.47;;;20.28;100.00
16481;BME280;44634;54.110;12.138;2023-08-24T01:27:41;101589.19;;;20.31;100.00
16481;BME280;44634;54.110;12.138;2023-08-24T01:30:10;101597.06;;;20.33;100.00
16481;BME280;44634;54.110;12.138;2023-08-24T01:32:38;101607.28;;;20.14;100.00
16481;BME280;44634;54.110;12.138;2023-08-24T01:35:07;101609.72;;;20.01;100.00
16481;BME280;44634;54.110;12.138;2023-08-24T01:37:35;101603.28;;;20.10;100.00
16481;BME280;44634;54.110;12.138;2023-08-24T01:40:05;101599.09;;;20.08;100.00
16481;BME280;44634;54.110;12.138;2023-08-24T01:42:41;101591.78;;;20.02;100.00
16481;BME280;44634;54.110;12.138;2023-08-24T01:45:11;101603.94;;;19.89;100.00
16481;BME280;44634;54.110;12.138;2023-08-24T01:47:40;101595.34;;;19.94;100.00
16481;BME280;44634;54.110;12.138;2023-08-24T01:50:09;101589.31;;;19.69;100.00
16481;BME280;44634;54.110;12.138;2023-08-24T01:52:36;101582.00;;;19.55;100.00
16481;BME280;44634;54.110;12.138;2023-08-24T01:55:04;101575.44;;;19.57;100.00
16481;BME280;44634;54.110;12.138;2023-08-24T01:57:32;101574.22;;;19.68;100.00
16481;BME280;44634;54.110;12.138;2023-08-24T02:00:00;101578.03;;;19.74;100.00
16481;BME280;44634;54.110;12.138;2023-08-24T02:02:29;101582.28;;;19.60;100.00
16481;BME280;44634;54.110;12.138;2023-08-24T02:04:57;101580.28;;;19.54;100.00
16481;BME280;44634;54.110;12.138;2023-08-24T02:07:25;101580.81;;;19.49;100.00
16481;BME280;44634;54.110;12.138;2023-08-24T02:09:52;101579.22;;;19.32;100.00
16481;BME280;44634;54.110;12.138;2023-08-24T02:12:20;101574.75;;;19.08;100.00
16481;BME280;44634;54.110;12.138;2023-08-24T02:14:47;101567.00;;;19.21;100.00
16481;BME280;44634;54.110;12.138;2023-08-24T02:17:15;101563.94;;;19.32;100.00
16481;BME280;44634;54.110;12.138;2023-08-24T02:19:44;101556.38;;;19.36;100.00
16481;BME280;44634;54.110;12.138;2023-08-24T02:22:11;101568.28;;;19.42;100.00
16481;BME280;44634;54.110;12.138;2023-08-24T02:24:39;101570.44;;;19.38;100.00
16481;BME280;44634;54.110;12.138;2023-08-24T02:27:07;101568.31;;;19.33;100.00
16481;BME280;44634;54.110;12.138;2023-08-24T02:29:34;101570.97;;;19.42;100.00
16481;BME280;44634;54.110;12.138;2023-08-24T02:32:03;101583.09;;;19.21;100.00
16481;BME280;44634;54.110;12.138;2023-08-24T02:34:31;101567.53;;;19.25;100.00
16481;BME280;44634;54.110;12.138;2023-08-24T02:37:00;101570.22;;;19.17;100.00
16481;BME280;44634;54.110;12.138;2023-08-24T02:39:28;101562.47;;;19.22;100.00
16481;BME280;44634;54.110;12.138;2023-08-24T02:41:55;101567.72;;;19.07;100.00
16481;BME280;44634;54.110;12.138;2023-08-24T02:44:23;101564.03;;;19.08;100.00
16481;BME280;44634;54.110;12.138;2023-08-24T02:46:50;101561.88;;;19.03;100.00
16481;BME280;44634;54.110;12.138;2023-08-24T02:49:18;101551.97;;;19.12;100.00
16481;BME280;44634;54.110;12.138;2023-08-24T02:51:45;101561.75;;;18.97;100.00
16481;BME280;44634;54.110;12.138;2023-08-24T02:54:14;101559.44;;;18.86;100.00
16481;BME280;44634;54.110;12.138;2023-08-24T02:56:42;101548.19;;;18.98;100.00
16481;BME280;44634;54.110;12.138;2023-08-24T02:59:10;101548.97;;;19.07;100.00
16481;BME280;44634;54.110;12.138;2023-08-24T03:01:37;101541.59;;;19.09;100.00
16481;BME280;44634;54.110;12.138;2023-08-24T03:04:07;101555.97;;;19.16;100.00
16481;BME280;44634;54.110;12.138;2023-08-24T03:06:35;101560.34;;;19.17;100.00
16481;BME280;44634;54.110;12.138;2023-08-24T03:09:03;101571.59;;;19.05;100.00
16481;BME280;44634;54.110;12.138;2023-08-24T03:11:32;101562.06;;;19.10;100.00
16481;BME280;44634;54.110;12.138;2023-08-24T03:13:59;101560.03;;;19.12;100.00
16481;BME280;44634;54.110;12.138;2023-08-24T03:16:27;101548.47;;;19.03;100.00
16481;BME280;44634;54.110;12.138;2023-08-24T03:18:55;101547.97;;;19.08;100.00
16481;BME280;44634;54.110;12.138;2023-08-24T03:21:22;101550.63;;;19.08;100.00
16481;BME280;44634;54.110;12.138;2023-08-24T03:23:50;101556.81;;;19.17;100.00
16481;BME280;44634;54.110;12.138;2023-08-24T03:26:18;101555.63;;;19.19;100.00
16481;BME280;44634;54.110;12.138;2023-08-24T03:28:48;101565.06;;;19.07;100.00
16481;BME280;44634;54.110;12.138;2023-08-24T03:31:16;101568.38;;;19.09;100.00
16481;BME280;44634;54.110;12.138;2023-08-24T03:33:43;101573.09;;;19.15;100.00
16481;BME280;44634;54.110;12.138;2023-08-24T03:36:11;101573.16;;;18.91;100.00
16481;BME280;44634;54.110;12.138;2023-08-24T03:38:39;101574.16;;;18.90;100.00
16481;BME280;44634;54.110;12.138;2023-08-24T03:41:07;101573.50;;;18.80;100.00
16481;BME280;44634;54.110;12.138;2023-08-24T03:43:36;101557.41;;;18.80;100.00
16481;BME280;44634;54.110;12.138;2023-08-24T03:46:05;101549.91;;;18.75;100.00
16481;BME280;44634;54.110;12.138;2023-08-24T03:48:33;101531.16;;;18.83;100.00
16481;BME280;44634;54.110;12.138;2023-08-24T03:51:01;101535.50;;;18.76;100.00
16481;BME280;44634;54.110;12.138;2023-08-24T03:53:28;101540.03;;;18.59;100.00
16481;BME280;44634;54.110;12.138;2023-08-24T03:55:56;101554.25;;;18.60;100.00
16481;BME280;44634;54.110;12.138;2023-08-24T03:58:23;101561.94;;;18.79;100.00
16481;BME280;44634;54.110;12.138;2023-08-24T04:00:51;101573.53;;;18.71;100.00
16481;BME280;44634;54.110;12.138;2023-08-24T04:03:21;101580.88;;;18.78;100.00
16481;BME280;44634;54.110;12.138;2023-08-24T04:05:49;101607.00;;;18.76;100.00
16481;BME280;44634;54.110;12.138;2023-08-24T04:08:17;101613.06;;;18.69;100.00
16481;BME280;44634;54.110;12.138;2023-08-24T04:10:44;101611.19;;;18.86;100.00
16481;BME280;44634;54.110;12.138;2023-08-24T04:13:12;101616.53;;;18.86;100.00
16481;BME280;44634;54.110;12.138;2023-08-24T04:15:39;101615.72;;;18.86;100.00
16481;BME280;44634;54.110;12.138;2023-08-24T04:18:07;101604.50;;;18.82;100.00
16481;BME280;44634;54.110;12.138;2023-08-24T04:20:36;101605.16;;;18.84;100.00
16481;BME280;44634;54.110;12.138;2023-08-24T04:23:04;101610.19;;;18.79;100.00
16481;BME280;44634;54.110;12.138;2023-08-24T04:25:33;101620.06;;;18.79;100.00
16481;BME280;44634;54.110;12.138;2023-08-24T04:28:01;101619.41;;;18.85;100.00
16481;BME280;44634;54.110;12.138;2023-08-24T04:30:31;101619.03;;;18.88;100.00
16481;BME280;44634;54.110;12.138;2023-08-24T04:32:59;101625.75;;;18.59;100.00
16481;BME280;44634;54.110;12.138;2023-08-24T04:35:27;101634.31;;;18.71;100.00
16481;BME280;44634;54.110;12.138;2023-08-24T04:37:56;101632.94;;;18.91;100.00
16481;BME280;44634;54.110;12.138;2023-08-24T04:40:23;101647.88;;;18.69;100.00
16481;BME280;44634;54.110;12.138;2023-08-24T04:42:51;101634.16;;;18.72;100.00
16481;BME280;44634;54.110;12.138;2023-08-24T04:45:18;101626.91;;;18.89;100.00
16481;BME280;44634;54.110;12.138;2023-08-24T04:47:46;101615.38;;;18.81;100.00
16481;BME280;44634;54.110;12.138;2023-08-24T04:50:14;101616.19;;;18.89;100.00
16481;BME280;44634;54.110;12.138;2023-08-24T04:52:43;101622.59;;;18.72;100.00
16481;BME280;44634;54.110;12.138;2023-08-24T04:55:13;101608.88;;;18.67;100.00
16481;BME280;44634;54.110;12.138;2023-08-24T04:57:41;101610.69;;;18.75;100.00
16481;BME280;44634;54.110;12.138;2023-08-24T05:00:09;101616.53;;;18.78;100.00
16481;BME280;44634;54.110;12.138;2023-08-24T05:02:42;101614.66;;;19.11;100.00
16481;BME280;44634;54.110;12.138;2023-08-24T05:05:10;101625.03;;;19.14;100.00
16481;BME280;44634;54.110;12.138;2023-08-24T05:07:37;101630.69;;;19.19;100.00
16481;BME280;44634;54.110;12.138;2023-08-24T05:10:06;101641.06;;;19.22;100.00
16481;BME280;44634;54.110;12.138;2023-08-24T05:12:35;101633.38;;;19.27;100.00
16481;BME280;44634;54.110;12.138;2023-08-24T05:15:03;101639.75;;;19.26;100.00
16481;BME280;44634;54.110;12.138;2023-08-24T05:17:31;101634.69;;;19.23;100.00
16481;BME280;44634;54.110;12.138;2023-08-24T05:19:59;101633.84;;;19.31;100.00
16481;BME280;44634;54.110;12.138;2023-08-24T05:22:26;101637.25;;;19.17;100.00
16481;BME280;44634;54.110;12.138;2023-08-24T05:24:55;101638.06;;;19.25;100.00
16481;BME280;44634;54.110;12.138;2023-08-24T05:27:23;101637.06;;;19.26;100.00
16481;BME280;44634;54.110;12.138;2023-08-24T05:29:52;101634.50;;;19.41;100.00
16481;BME280;44634;54.110;12.138;2023-08-24T05:32:19;101633.03;;;19.30;100.00
16481;BME280;44634;54.110;12.138;2023-08-24T05:34:47;101627.91;;;19.52;100.00
16481;BME280;44634;54.110;12.138;2023-08-24T05:37:15;101628.66;;;19.77;100.00
16481;BME280;44634;54.110;12.138;2023-08-24T05:39:42;101641.13;;;19.61;100.00
16481;BME280;44634;54.110;12.138;2023-08-24T05:42:10;101629.53;;;20.00;100.00
16481;BME280;44634;54.110;12.138;2023-08-24T05:44:37;101644.63;;;20.01;100.00
16481;BME280;44634;54.110;12.138;2023-08-24T05:47:07;101643.94;;;20.30;100.00
16481;BME280;44634;54.110;12.138;2023-08-24T05:49:34;101662.00;;;20.13;100.00
16481;BME280;44634;54.110;12.138;2023-08-24T05:52:02;101668.56;;;20.34;100.00
16481;BME280;44634;54.110;12.138;2023-08-24T05:54:30;101674.03;;;20.26;100.00
16481;BME280;44634;54.110;12.138;2023-08-24T05:56:58;101680.16;;;20.42;100.00
16481;BME280;44634;54.110;12.138;2023-08-24T05:59:27;101693.72;;;20.10;100.00
16481;BME280;44634;54.110;12.138;2023-08-24T06:01:55;101691.91;;;20.33;100.00
16481;BME280;44634;54.110;12.138;2023-08-24T06:04:24;101701.94;;;20.16;100.00
16481;BME280;44634;54.110;12.138;2023-08-24T06:06:52;101696.56;;;20.16;100.00
16481;BME280;44634;54.110;12.138;2023-08-24T06:09:19;101704.13;;;20.13;100.00
16481;BME280;44634;54.110;12.138;2023-08-24T06:11:47;101702.63;;;20.10;100.00
16481;BME280;44634;54.110;12.138;2023-08-24T06:14:15;101708.84;;;20.11;100.00
16481;BME280;44634;54.110;12.138;2023-08-24T06:16:43;101709.63;;;19.88;100.00
16481;BME280;44634;54.110;12.138;2023-08-24T06:19:10;101698.94;;;20.11;100.00
16481;BME280;44634;54.110;12.138;2023-08-24T06:21:39;101723.59;;;20.15;100.00
16481;BME280;44634;54.110;12.138;2023-08-24T06:24:07;101715.34;;;20.47;100.00
16481;BME280;44634;54.110;12.138;2023-08-24T06:26:35;101732.59;;;20.22;100.00
16481;BME280;44634;54.110;12.138;2023-08-24T06:29:03;101732.34;;;20.40;100.00
16481;BME280;44634;54.110;12.138;2023-08-24T06:31:30;101735.78;;;20.26;100.00
16481;BME280;44634;54.110;12.138;2023-08-24T06:33:59;101739.84;;;20.75;100.00
16481;BME280;44634;54.110;12.138;2023-08-24T06:36:27;101754.53;;;20.65;100.00
16481;BME280;44634;54.110;12.138;2023-08-24T06:38:57;101748.75;;;20.76;100.00
16481;BME280;44634;54.110;12.138;2023-08-24T06:41:25;101748.88;;;20.60;100.00
16481;BME280;44634;54.110;12.138;2023-08-24T06:43:52;101745.09;;;20.92;100.00
16481;BME280;44634;54.110;12.138;2023-08-24T06:46:22;101748.13;;;20.66;100.00
16481;BME280;44634;54.110;12.138;2023-08-24T06:48:48;101747.63;;;20.70;100.00
16481;BME280;44634;54.110;12.138;2023-08-24T06:51:16;101745.25;;;21.13;100.00
16481;BME280;44634;54.110;12.138;2023-08-24T06:53:43;101733.56;;;21.21;100.00
16481;BME280;44634;54.110;12.138;2023-08-24T06:56:14;101729.34;;;21.26;100.00
16481;BME280;44634;54.110;12.138;2023-08-24T06:58:44;101735.44;;;21.20;100.00
16481;BME280;44634;54.110;12.138;2023-08-24T07:01:11;101721.78;;;21.22;100.00
16481;BME280;44634;54.110;12.138;2023-08-24T07:03:39;101727.75;;;20.94;100.00
16481;BME280;44634;54.110;12.138;2023-08-24T07:06:06;101716.38;;;21.07;100.00
16481;BME280;44634;54.110;12.138;2023-08-24T07:08:34;101714.72;;;21.06;100.00
16481;BME280;44634;54.110;12.138;2023-08-24T07:11:03;101702.94;;;21.59;100.00
16481;BME280;44634;54.110;12.138;2023-08-24T07:13:32;101704.78;;;21.44;100.00
16481;BME280;44634;54.110;12.138;2023-08-24T07:16:02;101706.22;;;21.17;100.00
16481;BME280;44634;54.110;12.138;2023-08-24T07:18:30;101704.44;;;21.24;100.00
16481;BME280;44634;54.110;12.138;2023-08-24T07:20:58;101699.16;;;21.16;100.00
16481;BME280;44634;54.110;12.138;2023-08-24T07:23:26;101689.88;;;21.04;100.00
16481;BME280;44634;54.110;12.138;2023-08-24T07:25:53;101690.66;;;20.90;100.00
16481;BME280;44634;54.110;12.138;2023-08-24T07:28:21;101671.75;;;21.35;100.00
16481;BME280;44634;54.110;12.138;2023-08-24T07:30:50;101659.91;;;21.81;100.00
16481;BME280;44634;54.110;12.138;2023-08-24T07:33:22;101660.59;;;21.68;100.00
16481;BME280;44634;54.110;12.138;2023-08-24T07:35:51;101666.56;;;21.49;100.00
16481;BME280;44634;54.110;12.138;2023-08-24T07:38:18;101663.66;;;21.50;100.00
16481;BME280;44634;54.110;12.138;2023-08-24T07:40:46;101656.22;;;21.67;100.00
16481;BME280;44634;54.110;12.138;2023-08-24T07:43:14;101652.53;;;21.53;100.00
16481;BME280;44634;54.110;12.138;2023-08-24T07:45:42;101651.41;;;21.98;100.00
16481;BME280;44634;54.110;12.138;2023-08-24T07:48:11;101651.50;;;21.54;100.00
16481;BME280;44634;54.110;12.138;2023-08-24T07:50:38;101654.38;;;22.18;100.00
16481;BME280;44634;54.110;12.138;2023-08-24T07:53:07;101644.50;;;22.25;100.00
16481;BME280;44634;54.110;12.138;2023-08-24T07:55:35;101637.19;;;21.68;100.00
16481;BME280;44634;54.110;12.138;2023-08-24T07:58:03;101628.56;;;22.09;100.00
16481;BME280;44634;54.110;12.138;2023-08-24T08:00:30;101633.97;;;21.73;100.00
16481;BME280;44634;54.110;12.138;2023-08-24T08:02:58;101624.25;;;22.30;100.00
16481;BME280;44634;54.110;12.138;2023-08-24T08:05:28;101615.81;;;22.39;100.00
16481;BME280;44634;54.110;12.138;2023-08-24T08:07:55;101601.50;;;22.60;100.00
16481;BME280;44634;54.110;12.138;2023-08-24T08:10:23;101586.78;;;22.63;100.00
16481;BME280;44634;54.110;12.138;2023-08-24T08:12:51;101585.03;;;22.76;100.00
16481;BME280;44634;54.110;12.138;2023-08-24T08:15:19;101571.22;;;22.58;100.00
16481;BME280;44634;54.110;12.138;2023-08-24T08:17:47;101562.34;;;22.99;100.00
16481;BME280;44634;54.110;12.138;2023-08-24T08:20:16;101549.56;;;23.07;100.00
16481;BME280;44634;54.110;12.138;2023-08-24T08:22:45;101525.44;;;22.99;100.00
16481;BME280;44634;54.110;12.138;2023-08-24T08:25:13;101493.44;;;22.90;100.00
16481;BME280;44634;54.110;12.138;2023-08-24T08:27:44;101536.91;;;22.45;100.00
16481;BME280;44634;54.110;12.138;2023-08-24T08:30:12;101531.22;;;22.34;100.00
16481;BME280;44634;54.110;12.138;2023-08-24T08:32:40;101504.97;;;22.77;100.00
16481;BME280;44634;54.110;12.138;2023-08-24T08:35:08;101459.72;;;23.13;100.00
16481;BME280;44634;54.110;12.138;2023-08-24T08:37:35;101443.16;;;22.82;100.00
16481;BME280;44634;54.110;12.138;2023-08-24T08:40:05;101443.66;;;22.92;100.00
16481;BME280;44634;54.110;12.138;2023-08-24T08:42:33;101440.16;;;22.98;100.00
16481;BME280;44634;54.110;12.138;2023-08-24T08:45:01;101411.84;;;23.55;100.00
16481;BME280;44634;54.110;12.138;2023-08-24T08:47:30;101381.53;;;23.47;100.00
16481;BME280;44634;54.110;12.138;2023-08-24T08:49:58;101345.63;;;23.53;100.00
16481;BME280;44634;54.110;12.138;2023-08-24T08:52:27;101324.00;;;23.86;100.00
16481;BME280;44634;54.110;12.138;2023-08-24T08:54:54;101327.78;;;23.65;100.00
16481;BME280;44634;54.110;12.138;2023-08-24T08:57:24;101277.28;;;23.79;100.00
16481;BME280;44634;54.110;12.138;2023-08-24T08:59:52;101257.41;;;23.60;100.00
16481;BME280;44634;54.110;12.138;2023-08-24T09:02:20;101258.56;;;23.90;100.00
16481;BME280;44634;54.110;12.138;2023-08-24T09:04:48;101280.00;;;23.72;100.00
16481;BME280;44634;54.110;12.138;2023-08-24T09:07:18;101303.03;;;23.88;100.00
16481;BME280;44634;54.110;12.138;2023-08-24T09:09:47;101290.75;;;23.92;100.00
16481;BME280;44634;54.110;12.138;2023-08-24T09:12:15;101333.13;;;23.98;100.00
16481;BME280;44634;54.110;12.138;2023-08-24T09:14:44;101345.00;;;23.90;100.00
16481;BME280;44634;54.110;12.138;2023-08-24T09:17:18;101326.91;;;23.84;100.00
16481;BME280;44634;54.110;12.138;2023-08-24T09:19:46;101342.91;;;23.53;100.00
16481;BME280;44634;54.110;12.138;2023-08-24T09:22:17;101353.25;;;24.22;100.00
16481;BME280;44634;54.110;12.138;2023-08-24T09:24:44;101357.28;;;23.73;100.00
16481;BME280;44634;54.110;12.138;2023-08-24T09:27:16;101328.09;;;24.21;100.00
16481;BME280;44634;54.110;12.138;2023-08-24T09:29:48;101311.75;;;23.57;100.00
16481;BME280;44634;54.110;12.138;2023-08-24T09:32:21;101348.72;;;23.17;100.00
16481;BME280;44634;54.110;12.138;2023-08-24T09:34:49;101376.34;;;23.52;100.00
16481;BME280;44634;54.110;12.138;2023-08-24T09:37:16;101367.44;;;23.58;100.00
16481;BME280;44634;54.110;12.138;2023-08-24T09:39:44;101330.44;;;24.04;100.00
16481;BME280;44634;54.110;12.138;2023-08-24T09:42:12;101313.72;;;24.34;100.00
16481;BME280;44634;54.110;12.138;2023-08-24T09:44:43;101305.09;;;23.92;100.00
16481;BME280;44634;54.110;12.138;2023-08-24T09:47:12;101277.16;;;24.70;100.00
16481;BME280;44634;54.110;12.138;2023-08-24T09:49:39;101237.19;;;24.72;100.00
16481;BME280;44634;54.110;12.138;2023-08-24T09:52:08;101249.94;;;24.20;100.00
16481;BME280;44634;54.110;12.138;2023-08-24T09:54:36;101210.47;;;25.13;100.00
16481;BME280;44634;54.110;12.138;2023-08-24T09:57:04;101206.31;;;24.16;100.00
16481;BME280;44634;54.110;12.138;2023-08-24T09:59:33;101182.09;;;25.23;100.00
16481;BME280;44634;54.110;12.138;2023-08-24T10:02:02;101176.94;;;25.94;100.00
16481;BME280;44634;54.110;12.138;2023-08-24T10:04:33;101140.59;;;25.65;100.00
16481;BME280;44634;54.110;12.138;2023-08-24T10:07:02;101128.75;;;25.96;100.00
16481;BME280;44634;54.110;12.138;2023-08-24T10:09:35;101107.53;;;25.93;100.00
16481;BME280;44634;54.110;12.138;2023-08-24T10:12:04;101114.34;;;25.47;100.00
16481;BME280;44634;54.110;12.138;2023-08-24T10:14:32;101140.22;;;25.80;100.00
16481;BME280;44634;54.110;12.138;2023-08-24T10:17:03;101128.72;;;26.26;100.00
16481;BME280;44634;54.110;12.138;2023-08-24T10:19:32;101120.25;;;26.23;100.00
16481;BME280;44634;54.110;12.138;2023-08-24T10:22:00;101105.00;;;26.75;100.00
16481;BME280;44634;54.110;12.138;2023-08-24T10:24:29;101091.94;;;26.84;100.00
16481;BME280;44634;54.110;12.138;2023-08-24T10:26:58;101084.81;;;27.30;100.00
16481;BME280;44634;54.110;12.138;2023-08-24T10:29:27;101108.94;;;26.26;100.00
16481;BME280;44634;54.110;12.138;2023-08-24T10:31:55;101110.69;;;26.97;100.00
16481;BME280;44634;54.110;12.138;2023-08-24T10:34:23;101057.28;;;28.23;100.00
16481;BME280;44634;54.110;12.138;2023-08-24T10:36:52;101046.88;;;28.20;100.00
16481;BME280;44634;54.110;12.138;2023-08-24T10:39:26;101064.53;;;27.61;100.00
16481;BME280;44634;54.110;12.138;2023-08-24T10:41:57;101072.81;;;26.90;100.00
16481;BME280;44634;54.110;12.138;2023-08-24T10:44:33;101061.22;;;27.99;100.00
16481;BME280;44634;54.110;12.138;2023-08-24T10:47:08;101049.94;;;28.07;100.00
16481;BME280;44634;54.110;12.138;2023-08-24T10:49:38;101070.94;;;26.56;100.00
16481;BME280;44634;54.110;12.138;2023-08-24T10:52:17;101093.25;;;25.86;100.00
16481;BME280;44634;54.110;12.138;2023-08-24T10:54:45;101117.38;;;26.18;100.00
16481;BME280;44634;54.110;12.138;2023-08-24T10:57:18;101080.81;;;27.32;100.00
16481;BME280;44634;54.110;12.138;2023-08-24T11:00:00;101072.13;;;27.47;100.00
16481;BME280;44634;54.110;12.138;2023-08-24T11:02:40;101069.59;;;27.28;100.00
16481;BME280;44634;54.110;12.138;2023-08-24T11:05:16;101057.94;;;28.81;100.00
16481;BME280;44634;54.110;12.138;2023-08-24T11:07:49;101057.13;;;28.47;100.00
16481;BME280;44634;54.110;12.138;2023-08-24T11:10:17;101047.88;;;28.98;100.00
16481;BME280;44634;54.110;12.138;2023-08-24T11:15:30;101060.44;;;28.65;100.00
16481;BME280;44634;54.110;12.138;2023-08-24T11:18:11;101064.22;;;28.31;100.00
16481;BME280;44634;54.110;12.138;2023-08-24T11:20:39;101043.91;;;27.48;100.00
16481;BME280;44634;54.110;12.138;2023-08-24T11:23:10;101024.81;;;28.16;100.00
16481;BME280;44634;54.110;12.138;2023-08-24T11:25:38;101044.41;;;28.19;100.00
16481;BME280;44634;54.110;12.138;2023-08-24T11:28:06;101005.06;;;28.38;100.00
16481;BME280;44634;54.110;12.138;2023-08-24T11:30:34;101038.56;;;28.94;100.00
16481;BME280;44634;54.110;12.138;2023-08-24T11:33:02;101028.47;;;28.56;100.00
16481;BME280;44634;54.110;12.138;2023-08-24T11:35:34;101043.59;;;28.68;100.00
16481;BME280;44634;54.110;12.138;2023-08-24T11:38:02;101005.25;;;28.70;100.00
16481;BME280;44634;54.110;12.138;2023-08-24T11:40:35;101112.84;;;29.33;100.00
16481;BME280;44634;54.110;12.138;2023-08-24T11:43:03;101176.28;;;28.78;100.00
16481;BME280;44634;54.110;12.138;2023-08-24T11:45:31;101138.53;;;27.91;100.00
16481;BME280;44634;54.110;12.138;2023-08-24T11:48:00;101191.63;;;28.51;100.00
16481;BME280;44634;54.110;12.138;2023-08-24T11:50:28;101184.47;;;28.33;100.00
16481;BME280;44634;54.110;12.138;2023-08-24T11:52:56;101337.59;;;30.03;100.00
16481;BME280;44634;54.110;12.138;2023-08-24T11:55:24;101327.97;;;29.78;100.00
16481;BME280;44634;54.110;12.138;2023-08-24T11:57:53;101257.78;;;29.69;100.00
16481;BME280;44634;54.110;12.138;2023-08-24T12:00:22;101283.66;;;29.49;100.00
16481;BME280;44634;54.110;12.138;2023-08-24T12:02:50;101276.41;;;28.48;100.00
16481;BME280;44634;54.110;12.138;2023-08-24T12:05:21;101163.72;;;29.27;100.00
16481;BME280;44634;54.110;12.138;2023-08-24T12:07:49;101235.94;;;29.47;100.00
16481;BME280;44634;54.110;12.138;2023-08-24T12:10:19;101268.13;;;29.67;100.00
16481;BME280;44634;54.110;12.138;2023-08-24T12:12:46;101221.03;;;28.37;100.00
16481;BME280;44634;54.110;12.138;2023-08-24T12:15:16;101317.53;;;29.53;100.00
16481;BME280;44634;54.110;12.138;2023-08-24T12:17:46;101347.09;;;30.83;100.00
16481;BME280;44634;54.110;12.138;2023-08-24T12:20:18;101329.63;;;29.79;100.00
16481;BME280;44634;54.110;12.138;2023-08-24T12:22:51;101270.91;;;28.42;100.00
16481;BME280;44634;54.110;12.138;2023-08-24T12:25:21;101323.38;;;30.39;100.00
16481;BME280;44634;54.110;12.138;2023-08-24T12:27:50;101320.50;;;28.90;100.00
16481;BME280;44634;54.110;12.138;2023-08-24T12:30:19;101244.81;;;27.54;100.00
16481;BME280;44634;54.110;12.138;2023-08-24T12:32:48;101156.16;;;27.37;100.00
16481;BME280;44634;54.110;12.138;2023-08-24T12:35:17;101278.31;;;28.47;100.00
16481;BME280;44634;54.110;12.138;2023-08-24T12:37:45;101286.84;;;27.75;100.00
16481;BME280;44634;54.110;12.138;2023-08-24T12:40:12;101260.63;;;27.57;100.00